Time;durP1;ratioP1;P1;durP2;ratioP2;P2;SDS_P1;SDS_P2;PMS_P1;PMS_P2;Temp;Humidity;BMP_temperature;BMP_pressure;BME280_temperature;BME280_humidity;BME280_pressure;Samples;Min_cycle;Max_cycle;Signal;HPM_P1;HPM_P2
2021/12/09 06:02:21;;;;;;;13.48;6.30;;;3.90;99.90;;;;;;5117355;23;20793;-79
2021/12/09 06:04:49;;;;;;;10.43;5.80;;;3.90;99.90;;;;;;4936155;29;20130;-80
2021/12/09 06:07:16;;;;;;;9.77;5.68;;;3.90;99.90;;;;;;4938352;29;20051;-80
2021/12/09 06:09:43;;;;;;;10.15;6.28;;;3.80;99.90;;;;;;4938364;29;20075;-78
2021/12/09 06:12:11;;;;;;;12.68;6.10;;;3.80;99.90;;;;;;4938826;29;20055;-79
2021/12/09 06:14:40;;;;;;;11.52;5.90;;;3.80;99.90;;;;;;4938842;29;20500;-82
2021/12/09 06:17:07;;;;;;;11.57;6.10;;;3.80;99.90;;;;;;4937192;29;20119;-82
2021/12/09 06:19:36;;;;;;;13.02;6.18;;;3.80;99.90;;;;;;4937214;29;20065;-82
2021/12/09 06:22:04;;;;;;;9.65;5.72;;;3.80;99.90;;;;;;4938102;29;20474;-81
2021/12/09 06:24:31;;;;;;;11.13;5.82;;;3.80;99.90;;;;;;4936816;29;20573;-81
2021/12/09 06:26:59;;;;;;;9.75;5.82;;;3.80;99.90;;;;;;4935126;29;20151;-79
2021/12/09 06:29:27;;;;;;;8.30;5.22;;;3.80;99.90;;;;;;4934511;29;20139;-82
2021/12/09 06:31:54;;;;;;;10.82;5.50;;;3.80;99.90;;;;;;4934638;29;20485;-80
2021/12/09 06:34:21;;;;;;;11.32;5.10;;;3.80;99.90;;;;;;4934446;29;20507;-81
2021/12/09 06:36:49;;;;;;;9.30;5.45;;;3.80;99.90;;;;;;4935762;29;20083;-82
2021/12/09 06:39:17;;;;;;;10.32;5.53;;;3.80;99.90;;;;;;4937425;29;20139;-81
2021/12/09 06:41:44;;;;;;;12.23;6.35;;;3.80;99.90;;;;;;4937145;29;20052;-80
2021/12/09 06:44:12;;;;;;;10.25;5.78;;;3.80;99.90;;;;;;4937904;29;20131;-80
2021/12/09 06:46:39;;;;;;;11.70;5.72;;;3.80;99.90;;;;;;4937502;29;20155;-82
2021/12/09 06:49:07;;;;;;;11.70;5.43;;;3.80;99.90;;;;;;4937511;29;20588;-80
2021/12/09 06:51:34;;;;;;;12.40;5.85;;;3.80;99.90;;;;;;4936906;29;20134;-81
2021/12/09 06:54:03;;;;;;;10.25;5.60;;;3.80;99.90;;;;;;4937298;29;20139;-81
2021/12/09 06:56:32;;;;;;;10.65;6.10;;;3.80;99.90;;;;;;4936831;29;20056;-80
2021/12/09 06:58:59;;;;;;;8.88;5.47;;;3.90;99.90;;;;;;4936781;29;20055;-78
2021/12/09 07:01:27;;;;;;;10.25;5.68;;;3.80;99.90;;;;;;4936541;29;20484;-81
2021/12/09 07:03:54;;;;;;;8.75;5.45;;;3.90;99.90;;;;;;4936981;29;20075;-81
2021/12/09 07:06:21;;;;;;;9.70;5.63;;;3.90;99.90;;;;;;4935575;29;20090;-81
2021/12/09 07:08:49;;;;;;;10.93;5.68;;;3.90;99.90;;;;;;4936143;29;20130;-82
2021/12/09 07:11:21;;;;;;;11.40;6.22;;;3.90;99.90;;;;;;4936330;29;20562;-82
2021/12/09 07:13:49;;;;;;;13.32;6.00;;;3.90;99.90;;;;;;4936786;29;20134;-83
2021/12/09 07:16:16;;;;;;;10.95;6.00;;;3.90;99.90;;;;;;4936362;29;20146;-81
2021/12/09 07:18:44;;;;;;;10.32;5.63;;;3.90;99.90;;;;;;4936265;29;20143;-80
2021/12/09 07:21:11;;;;;;;10.70;5.50;;;3.90;99.90;;;;;;4936520;29;20143;-81
2021/12/09 07:23:39;;;;;;;12.63;5.75;;;3.90;99.90;;;;;;4937078;29;20079;-82
2021/12/09 07:26:07;;;;;;;10.15;5.40;;;3.90;99.90;;;;;;4936165;29;20094;-81
2021/12/09 07:28:36;;;;;;;9.35;5.50;;;3.90;99.90;;;;;;4937178;29;20481;-79
2021/12/09 07:31:03;;;;;;;10.18;5.53;;;3.90;99.90;;;;;;4935671;29;20465;-82
2021/12/09 07:33:31;;;;;;;10.48;5.60;;;3.90;99.90;;;;;;4936273;29;20134;-81
2021/12/09 07:35:58;;;;;;;9.98;5.25;;;3.90;99.90;;;;;;4936408;29;20079;-80
2021/12/09 07:38:25;;;;;;;9.85;5.20;;;3.90;99.90;;;;;;4936219;29;20159;-81
2021/12/09 07:40:52;;;;;;;10.75;4.88;;;3.90;99.90;;;;;;4935495;29;20143;-80
2021/12/09 07:43:20;;;;;;;9.32;4.55;;;3.90;99.90;;;;;;4935581;29;20146;-81
2021/12/09 07:45:48;;;;;;;8.65;4.65;;;3.80;99.90;;;;;;4936320;29;20052;-81
2021/12/09 07:48:15;;;;;;;10.88;4.20;;;3.90;99.90;;;;;;4935892;29;20055;-85
2021/12/09 07:50:43;;;;;;;8.85;4.60;;;3.90;99.90;;;;;;4935916;29;20056;-80
2021/12/09 07:53:10;;;;;;;10.70;4.53;;;3.90;99.90;;;;;;4935744;29;20055;-80
2021/12/09 07:55:37;;;;;;;8.10;4.50;;;3.90;99.90;;;;;;4935774;29;20053;-79
2021/12/09 07:58:04;;;;;;;11.38;5.05;;;3.90;99.90;;;;;;4935914;29;20094;-79
2021/12/09 08:00:34;;;;;;;9.77;4.80;;;3.90;99.90;;;;;;4936525;29;20051;-78
2021/12/09 08:03:03;;;;;;;8.82;4.32;;;3.90;99.90;;;;;;4937818;29;20154;-82
2021/12/09 08:05:35;;;;;;;10.15;4.65;;;3.90;99.90;;;;;;4937079;29;20060;-80
2021/12/09 08:08:03;;;;;;;10.18;4.85;;;3.90;99.90;;;;;;4936073;29;20139;-82
2021/12/09 08:10:30;;;;;;;11.27;4.95;;;3.90;99.90;;;;;;4935525;29;20052;-82
2021/12/09 08:12:59;;;;;;;9.52;4.55;;;3.90;99.90;;;;;;4937370;29;20470;-81
2021/12/09 08:15:27;;;;;;;9.30;4.45;;;3.90;99.90;;;;;;4935742;29;20044;-82
2021/12/09 08:18:02;;;;;;;9.98;4.38;;;3.90;99.90;;;;;;4935502;29;20055;-77
2021/12/09 08:20:33;;;;;;;11.35;4.72;;;4.00;99.90;;;;;;4936192;29;20118;-80
2021/12/09 08:23:01;;;;;;;10.15;4.60;;;3.90;99.90;;;;;;4937108;29;20062;-79
2021/12/09 08:25:28;;;;;;;9.35;4.78;;;4.00;99.90;;;;;;4919939;29;20493;-84
2021/12/09 08:27:55;;;;;;;9.77;4.68;;;4.00;99.90;;;;;;4937435;29;20091;-78
2021/12/09 08:30:26;;;;;;;10.18;4.38;;;4.00;99.90;;;;;;4937398;29;20139;-81
2021/12/09 08:32:53;;;;;;;10.13;4.25;;;4.00;99.90;;;;;;4937222;29;20410;-81
2021/12/09 08:35:20;;;;;;;7.45;4.20;;;4.00;99.90;;;;;;4937349;29;20413;-80
2021/12/09 08:37:50;;;;;;;9.30;3.90;;;4.00;99.90;;;;;;4936988;29;20047;-79
2021/12/09 08:40:20;;;;;;;8.32;3.97;;;4.00;99.90;;;;;;4939549;29;20058;-83
2021/12/09 08:42:49;;;;;;;10.40;4.40;;;4.00;99.90;;;;;;4945492;29;20554;-82
2021/12/09 08:45:17;;;;;;;8.27;4.18;;;4.00;99.90;;;;;;4943100;29;20147;-81
2021/12/09 08:47:45;;;;;;;9.75;4.82;;;4.10;99.90;;;;;;4939420;29;20564;-82
2021/12/09 08:50:18;;;;;;;8.52;3.90;;;4.10;99.90;;;;;;4939748;29;20143;-81
2021/12/09 08:52:46;;;;;;;8.07;3.50;;;4.10;99.90;;;;;;4940156;29;20131;-80
2021/12/09 08:55:17;;;;;;;8.43;3.50;;;4.10;99.90;;;;;;4939055;29;20083;-80
2021/12/09 08:57:46;;;;;;;7.88;3.75;;;4.10;99.90;;;;;;4938976;29;20044;-81
2021/12/09 09:00:17;;;;;;;10.35;3.60;;;4.10;99.90;;;;;;4939640;29;20079;-77
2021/12/09 09:02:49;;;;;;;9.90;3.40;;;4.10;99.90;;;;;;4938643;29;20131;-80
2021/12/09 09:05:16;;;;;;;7.72;3.25;;;4.20;99.90;;;;;;4938584;29;20047;-81
2021/12/09 09:07:44;;;;;;;8.48;3.30;;;4.20;99.90;;;;;;4938827;29;20138;-78
2021/12/09 09:10:16;;;;;;;8.50;3.38;;;4.20;99.90;;;;;;4938308;29;20130;-79
2021/12/09 09:12:43;;;;;;;10.10;3.65;;;4.20;99.90;;;;;;4938361;29;20139;-79
2021/12/09 09:15:14;;;;;;;8.25;3.30;;;4.20;99.90;;;;;;4938238;29;20087;-80
2021/12/09 09:17:42;;;;;;;8.77;3.53;;;4.20;99.90;;;;;;4939023;29;20468;-81
2021/12/09 09:20:13;;;;;;;9.13;3.30;;;4.30;99.90;;;;;;4938405;29;20062;-80
2021/12/09 09:22:42;;;;;;;7.18;3.50;;;4.30;99.90;;;;;;4938552;29;20468;-79
2021/12/09 09:25:14;;;;;;;8.80;3.47;;;4.30;99.90;;;;;;4938291;29;20473;-79
2021/12/09 09:27:43;;;;;;;8.48;3.30;;;4.30;99.90;;;;;;4939752;29;20098;-82
2021/12/09 09:30:14;;;;;;;6.30;3.10;;;4.30;99.90;;;;;;4944403;29;20139;-82
2021/12/09 09:32:42;;;;;;;8.10;3.20;;;4.30;99.90;;;;;;4941210;29;20442;-80
2021/12/09 09:35:10;;;;;;;5.45;3.40;;;4.30;99.90;;;;;;4938020;29;20054;-81
2021/12/09 09:37:37;;;;;;;6.28;2.60;;;4.30;99.90;;;;;;4938029;29;20138;-81
2021/12/09 09:40:10;;;;;;;7.80;3.00;;;4.30;99.90;;;;;;4937901;29;20051;-80
2021/12/09 09:42:58;;;;;;;7.40;3.03;;;4.40;99.90;;;;;;4938131;29;20136;-82
2021/12/09 09:45:29;;;;;;;7.40;2.85;;;4.40;99.90;;;;;;4937561;29;20063;-81
2021/12/09 09:47:57;;;;;;;7.25;2.92;;;4.40;99.90;;;;;;4937676;29;20052;-79
2021/12/09 09:50:25;;;;;;;5.90;2.92;;;4.40;99.90;;;;;;4937690;29;20056;-82
2021/12/09 09:52:53;;;;;;;6.47;2.63;;;4.40;99.90;;;;;;4937282;29;20564;-82
2021/12/09 09:55:21;;;;;;;8.43;3.30;;;4.50;99.90;;;;;;4937700;29;20138;-81
2021/12/09 09:57:53;;;;;;;5.72;2.85;;;4.50;99.90;;;;;;4937869;29;20058;-78
2021/12/09 10:00:25;;;;;;;6.70;2.90;;;4.50;99.90;;;;;;4937428;29;20091;-81
2021/12/09 10:02:54;;;;;;;6.30;2.83;;;4.50;99.90;;;;;;4937771;29;20073;-80
2021/12/09 10:05:34;;;;;;;5.97;2.50;;;4.60;99.90;;;;;;4937432;29;20469;-80
2021/12/09 10:08:01;;;;;;;5.60;2.60;;;4.60;99.90;;;;;;4937100;29;20106;-83
2021/12/09 10:10:28;;;;;;;8.32;2.47;;;4.60;99.90;;;;;;4937467;29;20560;-79
2021/12/09 10:12:59;;;;;;;5.90;2.50;;;4.60;99.90;;;;;;4937145;29;20139;-79
2021/12/09 10:15:36;;;;;;;7.95;2.40;;;4.60;99.90;;;;;;4937136;29;20051;-81
2021/12/09 10:18:05;;;;;;;5.43;2.40;;;4.60;99.90;;;;;;4936969;29;20098;-80
2021/12/09 10:20:52;;;;;;;5.88;2.13;;;4.60;99.90;;;;;;4936906;29;20397;-80
2021/12/09 10:23:29;;;;;;;4.47;2.10;;;4.70;99.90;;;;;;4937436;29;20111;-80
2021/12/09 10:26:25;;;;;;;4.57;1.95;;;4.70;99.90;;;;;;4936843;29;20134;-81
2021/12/09 10:28:58;;;;;;;5.50;2.08;;;4.80;99.90;;;;;;4936722;29;20067;-80
2021/12/09 10:31:29;;;;;;;7.40;2.90;;;4.80;99.90;;;;;;4936845;29;20390;-81
2021/12/09 10:34:13;;;;;;;5.60;2.40;;;4.80;99.90;;;;;;4936925;29;20079;-81
2021/12/09 10:36:43;;;;;;;6.78;2.42;;;4.80;99.90;;;;;;4937383;29;20091;-80
2021/12/09 10:39:37;;;;;;;5.80;2.63;;;4.80;99.90;;;;;;4936754;29;20047;-82
2021/12/09 10:42:09;;;;;;;5.55;2.50;;;4.80;99.90;;;;;;4933870;29;20139;-78
2021/12/09 10:44:53;;;;;;;6.20;2.80;;;4.80;99.90;;;;;;4936539;29;20126;-81
2021/12/09 10:47:35;;;;;;;6.43;2.60;;;4.80;99.90;;;;;;4936481;29;20126;-81
2021/12/09 10:50:16;;;;;;;5.70;2.90;;;4.80;99.90;;;;;;4936644;29;20421;-82
2021/12/09 10:52:49;;;;;;;5.03;2.72;;;4.90;99.90;;;;;;4936606;29;20048;-79
2021/12/09 10:55:23;;;;;;;6.32;2.80;;;4.90;99.90;;;;;;4936391;29;20055;-81
2021/12/09 10:58:01;;;;;;;5.83;3.17;;;4.90;99.90;;;;;;4936288;29;20142;-80
2021/12/09 11:00:40;;;;;;;7.28;3.00;;;4.90;99.90;;;;;;4935985;29;20468;-82
2021/12/09 11:03:21;;;;;;;7.38;2.83;;;4.90;99.90;;;;;;4935902;29;20142;-79
2021/12/09 11:05:57;;;;;;;5.55;3.33;;;4.90;99.90;;;;;;4936539;29;20051;-79
2021/12/09 11:08:34;;;;;;;7.28;3.20;;;5.00;99.90;;;;;;4935999;29;20581;-83
2021/12/09 11:11:12;;;;;;;5.93;3.00;;;5.00;99.90;;;;;;4936194;29;20115;-79
2021/12/09 11:13:51;;;;;;;7.25;3.05;;;4.90;99.90;;;;;;4936241;29;20051;-81
2021/12/09 11:16:26;;;;;;;6.85;2.90;;;4.90;99.90;;;;;;4937369;29;20051;-83
2021/12/09 11:18:56;;;;;;;;;;;4.90;99.90;;;;;;4937058;29;20059;-80
2021/12/09 11:21:30;;;;;;;6.05;2.95;;;4.90;99.90;;;;;;4926138;29;19930;-81
2021/12/09 11:24:03;;;;;;;6.05;2.97;;;4.90;99.90;;;;;;4936144;29;20446;-80
2021/12/09 11:26:45;;;;;;;6.97;3.00;;;4.90;99.90;;;;;;4935945;29;20051;-82
2021/12/09 11:29:16;;;;;;;6.97;2.85;;;4.90;99.90;;;;;;4933924;29;20486;-78
2021/12/09 11:31:58;;;;;;;5.10;2.67;;;4.90;99.90;;;;;;4931011;29;20417;-78
2021/12/09 11:34:29;;;;;;;6.85;3.10;;;4.90;99.90;;;;;;4942871;29;20061;-77
2021/12/09 11:37:04;;;;;;;6.68;3.08;;;5.00;99.90;;;;;;4926134;29;20154;-79
2021/12/09 11:39:35;;;;;;;6.88;2.72;;;5.00;99.90;;;;;;4921582;29;20060;-83
2021/12/09 11:42:23;;;;;;;7.40;2.97;;;5.00;99.90;;;;;;4930760;29;20052;-79
2021/12/09 11:44:50;;;;;;;6.57;2.90;;;5.00;99.90;;;;;;4933968;29;20051;-80
2021/12/09 11:47:18;;;;;;;7.75;2.55;;;5.00;99.90;;;;;;4919381;29;20487;-83
2021/12/09 11:49:47;;;;;;;6.53;2.92;;;5.10;99.90;;;;;;4926131;29;20134;-79
2021/12/09 11:52:17;;;;;;;6.68;2.80;;;5.10;99.90;;;;;;4936600;29;20155;-82
2021/12/09 11:54:53;;;;;;;8.68;2.83;;;5.10;99.90;;;;;;4922468;29;20139;-84
2021/12/09 11:57:33;;;;;;;6.57;2.80;;;5.20;99.90;;;;;;4917288;29;20058;-81
2021/12/09 12:07:03;;;;;;;7.43;2.97;;;5.30;99.90;;;;;;4917425;29;20127;-84
2021/12/09 12:12:47;;;;;;;7.03;2.47;;;5.40;99.90;;;;;;4935427;29;20126;-81
2021/12/09 12:15:39;;;;;;;6.18;2.50;;;5.40;99.90;;;;;;4920135;29;20533;-80
2021/12/09 12:18:29;;;;;;;5.88;2.58;;;5.40;99.90;;;;;;4916488;29;20052;-81
2021/12/09 12:21:10;;;;;;;6.43;2.80;;;5.50;99.90;;;;;;4916490;29;20127;-80
2021/12/09 12:23:47;;;;;;;6.15;2.15;;;5.50;99.90;;;;;;4916488;29;20166;-80
2021/12/09 12:29:52;;;;;;;;;;;5.50;99.90;;;;;;4916014;29;20417;-81
2021/12/09 12:35:29;;;;;;;5.38;2.22;;;5.50;99.90;;;;;;4913504;29;20052;-79
2021/12/09 12:38:04;;;;;;;7.03;2.40;;;5.50;99.90;;;;;;4919010;29;20051;-79
2021/12/09 12:40:40;;;;;;;5.10;2.03;;;5.40;99.90;;;;;;4935049;29;20059;-80
2021/12/09 12:43:14;;;;;;;7.28;2.20;;;5.40;99.90;;;;;;4935264;29;20551;-79
2021/12/09 12:45:58;;;;;;;5.60;2.17;;;5.40;99.90;;;;;;4935545;29;20052;-80
2021/12/09 12:48:56;;;;;;;6.05;2.13;;;5.40;99.90;;;;;;4934832;29;20055;-79
2021/12/09 12:51:29;;;;;;;6.05;2.20;;;5.50;99.90;;;;;;4935478;29;20064;-80
2021/12/09 12:53:59;;;;;;;6.90;2.05;;;5.60;99.90;;;;;;4935127;29;20052;-79
2021/12/09 12:56:31;;;;;;;4.53;1.98;;;5.70;99.90;;;;;;4935409;29;20056;-79
2021/12/09 12:59:22;;;;;;;5.95;2.30;;;5.90;99.90;;;;;;4934944;29;20406;-80
2021/12/09 13:02:56;;;;;;;5.97;2.45;;;5.90;99.90;;;;;;4934909;29;20059;-78
2021/12/09 13:05:39;;;;;;;4.70;2.00;;;6.00;99.90;;;;;;4915833;29;20060;-78
2021/12/09 13:11:15;;;;;;;5.93;2.20;;;7.50;99.90;;;;;;4919180;29;20055;-79
2021/12/09 13:13:52;;;;;;;4.90;1.80;;;7.90;98.30;;;;;;4917703;29;20509;-78
2021/12/09 13:16:34;;;;;;;7.47;2.10;;;7.90;97.80;;;;;;4921066;29;20059;-79
2021/12/09 13:19:09;;;;;;;6.32;1.80;;;7.80;97.30;;;;;;4934862;29;20103;-79
2021/12/09 13:21:46;;;;;;;;;;;7.60;97.40;;;;;;4935075;29;20413;-82
2021/12/09 13:24:48;;;;;;;6.32;1.85;;;7.40;97.60;;;;;;4934578;29;20090;-78
2021/12/09 13:36:19;;;;;;;6.30;1.52;;;7.00;98.30;;;;;;4918921;29;20056;-80
2021/12/09 13:47:15;;;;;;;5.78;1.60;;;11.80;86.50;;;;;;4937922;29;20055;-80
2021/12/09 13:49:52;;;;;;;5.40;1.73;;;13.80;77.20;;;;;;4937453;29;20059;-79
2021/12/09 13:55:15;;;;;;;4.30;1.48;;;13.50;70.40;;;;;;4937660;29;20520;-79
2021/12/09 13:57:46;;;;;;;5.95;1.60;;;12.70;71.10;;;;;;4936847;29;20160;-79
2021/12/09 14:00:40;;;;;;;5.00;1.40;;;13.20;74.20;;;;;;4937338;29;20158;-79
2021/12/09 14:03:10;;;;;;;5.03;2.03;;;13.60;69.10;;;;;;4912683;29;20142;-79
2021/12/09 14:05:45;;;;;;;4.80;1.40;;;13.40;67.50;;;;;;4918415;29;20134;-80
2021/12/09 14:08:15;;;;;;;4.80;1.50;;;14.50;67.20;;;;;;4918447;29;20691;-79
2021/12/09 14:10:48;;;;;;;4.78;1.50;;;16.00;61.90;;;;;;4918468;29;20044;-79
2021/12/09 14:13:18;;;;;;;7.07;1.58;;;17.10;58.30;;;;;;4919112;29;20047;-79
2021/12/09 14:16:00;;;;;;;5.60;1.50;;;17.90;55.30;;;;;;4918675;29;20070;-80
2021/12/09 14:18:40;;;;;;;6.32;1.85;;;18.40;51.40;;;;;;4918302;29;20446;-78
2021/12/09 14:21:08;;;;;;;4.05;1.35;;;18.50;51.50;;;;;;4918185;29;20079;-81
2021/12/09 14:23:36;;;;;;;5.40;1.63;;;18.60;50.50;;;;;;4927681;29;20056;-78
2021/12/09 14:26:04;;;;;;;3.72;1.50;;;17.80;50.30;;;;;;4914311;29;20058;-80
2021/12/09 14:28:35;;;;;;;5.03;1.63;;;16.60;51.80;;;;;;4933166;29;20458;-76
2021/12/09 14:31:03;;;;;;;5.30;1.55;;;15.40;54.80;;;;;;4934337;29;20542;-79
2021/12/09 14:33:30;;;;;;;9.45;3.38;;;14.30;56.00;;;;;;4920009;29;20052;-78
2021/12/09 14:36:06;;;;;;;16.42;7.53;;;13.20;58.60;;;;;;4931768;29;20056;-78
2021/12/09 14:38:37;;;;;;;29.27;12.30;;;12.30;61.10;;;;;;4914890;29;20112;-77
2021/12/09 14:41:18;;;;;;;7.20;2.30;;;11.50;63.50;;;;;;4915226;29;20253;-78
2021/12/09 14:43:46;;;;;;;5.50;1.88;;;10.80;66.00;;;;;;4914792;29;20474;-81
2021/12/09 14:46:22;;;;;;;6.32;1.95;;;10.10;68.40;;;;;;4915480;29;20091;-82
2021/12/09 14:48:49;;;;;;;9.98;2.20;;;9.50;71.30;;;;;;4914589;29;20418;-83
2021/12/09 14:51:20;;;;;;;8.25;1.95;;;9.00;74.00;;;;;;4923267;29;20048;-81
2021/12/09 14:53:51;;;;;;;4.05;1.52;;;8.60;77.80;;;;;;4931853;29;20138;-83
2021/12/09 14:56:27;;;;;;;8.95;1.83;;;8.20;82.10;;;;;;4932955;29;20142;-82
2021/12/09 14:59:08;;;;;;;5.28;1.70;;;7.80;86.80;;;;;;4932989;29;20047;-80
2021/12/09 15:01:36;;;;;;;6.40;1.65;;;7.50;90.20;;;;;;4931850;29;20139;-82
2021/12/09 15:04:07;;;;;;;5.32;1.85;;;7.20;91.50;;;;;;4933176;29;20062;-81
2021/12/09 15:06:39;;;;;;;6.43;1.80;;;7.00;92.50;;;;;;4933251;29;20055;-80
2021/12/09 15:09:14;;;;;;;7.20;1.83;;;6.80;93.40;;;;;;4933320;29;20115;-79
2021/12/09 15:11:44;;;;;;;9.75;2.00;;;6.70;94.10;;;;;;4933235;29;20054;-81
2021/12/09 15:14:26;;;;;;;7.82;1.70;;;6.50;94.80;;;;;;4932879;29;20111;-81
2021/12/09 15:17:14;;;;;;;5.75;2.03;;;6.40;95.20;;;;;;4933041;29;20052;-80
2021/12/09 15:19:46;;;;;;;7.32;2.20;;;6.30;95.60;;;;;;4932237;29;20066;-77
2021/12/09 15:22:18;;;;;;;6.93;1.90;;;6.20;95.90;;;;;;4933598;29;20482;-83
2021/12/09 15:25:08;;;;;;;6.15;1.58;;;6.10;96.20;;;;;;4933807;29;20099;-78
2021/12/09 15:28:04;;;;;;;7.00;1.60;;;6.00;96.50;;;;;;4933651;29;20477;-82
2021/12/09 15:30:51;;;;;;;5.93;2.10;;;6.00;96.70;;;;;;4900479;29;20052;-82
2021/12/09 15:33:24;;;;;;;4.85;1.45;;;5.90;96.80;;;;;;4933120;29;20529;-80
2021/12/09 15:36:06;;;;;;;6.78;1.80;;;5.90;97.00;;;;;;4934622;29;20503;-78
2021/12/09 15:38:35;;;;;;;11.15;3.17;;;5.90;97.10;;;;;;4935345;29;20043;-81
2021/12/09 15:41:04;;;;;;;8.45;3.40;;;5.80;97.30;;;;;;4935581;29;20218;-82
2021/12/09 15:43:32;;;;;;;7.32;2.45;;;5.80;97.40;;;;;;4935966;29;20055;-79
2021/12/09 15:46:02;;;;;;;7.65;1.90;;;5.70;97.50;;;;;;4936362;29;20059;-80
2021/12/09 15:48:34;;;;;;;7.55;1.98;;;5.70;97.60;;;;;;4919026;29;20051;-77
2021/12/09 15:51:08;;;;;;;8.75;2.85;;;5.70;97.70;;;;;;4928308;29;20087;-81
2021/12/09 15:53:47;;;;;;;22.17;7.97;;;5.60;97.70;;;;;;4921262;29;20086;-80
2021/12/09 15:56:20;;;;;;;18.50;7.22;;;5.70;97.80;;;;;;4926516;29;20052;-91
2021/12/09 15:58:48;;;;;;;9.85;2.95;;;5.60;97.90;;;;;;4926187;29;20082;-82
2021/12/09 16:01:19;;;;;;;9.10;2.30;;;5.60;98.00;;;;;;4922786;29;20064;-82
2021/12/09 16:03:46;;;;;;;7.63;2.20;;;5.60;98.20;;;;;;4923891;29;20131;-82
2021/12/09 16:06:13;;;;;;;9.05;2.25;;;5.60;98.40;;;;;;4923321;29;20155;-83
2021/12/09 16:08:42;;;;;;;8.27;2.50;;;5.50;98.40;;;;;;4931075;29;20063;-82
2021/12/09 16:11:11;;;;;;;6.57;2.20;;;5.50;98.50;;;;;;4922419;29;20066;-83
2021/12/09 16:13:40;;;;;;;8.02;2.00;;;5.50;98.50;;;;;;4928445;29;20055;-83
2021/12/09 16:16:12;;;;;;;7.65;2.00;;;5.50;98.50;;;;;;4917384;29;20445;-80
2021/12/09 16:18:41;;;;;;;6.30;2.33;;;5.50;98.50;;;;;;4921107;29;20096;-78
2021/12/09 16:21:12;;;;;;;7.65;2.83;;;5.50;98.50;;;;;;4924628;29;20054;-81
2021/12/09 16:23:43;;;;;;;8.55;2.35;;;5.50;98.50;;;;;;4930789;29;20044;-81
2021/12/09 16:26:11;;;;;;;6.93;2.40;;;5.50;98.50;;;;;;4921661;29;20076;-81
2021/12/09 16:28:41;;;;;;;7.18;2.50;;;5.50;98.50;;;;;;4917681;29;20126;-80
2021/12/09 16:31:10;;;;;;;8.93;2.47;;;5.50;98.40;;;;;;4916951;29;20469;-82
2021/12/09 16:33:40;;;;;;;8.15;2.30;;;5.50;98.40;;;;;;4924668;29;20051;-79
2021/12/09 16:36:10;;;;;;;7.57;1.95;;;5.50;98.40;;;;;;4924010;29;20055;-81
2021/12/09 16:38:42;;;;;;;7.82;2.33;;;5.40;98.50;;;;;;4922564;29;20055;-81
2021/12/09 16:41:10;;;;;;;8.27;2.45;;;5.40;98.60;;;;;;4920982;29;20044;-80
2021/12/09 16:43:38;;;;;;;6.50;1.70;;;5.40;98.60;;;;;;4919517;29;20075;-80
2021/12/09 16:46:09;;;;;;;5.55;2.50;;;5.40;98.20;;;;;;4920290;29;20107;-80
2021/12/09 16:48:40;;;;;;;7.93;2.17;;;5.40;98.20;;;;;;4919881;29;20132;-81
2021/12/09 16:51:10;;;;;;;6.68;1.90;;;5.40;98.10;;;;;;4926779;29;20060;-81
2021/12/09 16:53:45;;;;;;;8.23;2.22;;;5.40;98.00;;;;;;4921882;29;20058;-81
2021/12/09 16:56:27;;;;;;;9.35;2.03;;;5.40;98.00;;;;;;4920589;29;20494;-80
2021/12/09 16:58:59;;;;;;;6.28;1.75;;;5.40;98.10;;;;;;4927776;29;20563;-85
2021/12/09 17:01:33;;;;;;;6.20;1.90;;;5.40;98.10;;;;;;4931742;29;20146;-79
2021/12/09 17:04:02;;;;;;;7.65;2.10;;;5.40;97.80;;;;;;4937899;28;20150;-81
2021/12/09 17:06:31;;;;;;;8.85;2.33;;;5.40;97.80;;;;;;4935183;29;20580;-83
2021/12/09 17:09:03;;;;;;;8.23;2.20;;;5.40;97.80;;;;;;4930508;29;20166;-81
2021/12/09 17:11:32;;;;;;;6.50;2.08;;;5.40;97.90;;;;;;4925656;29;20063;-79
2021/12/09 17:14:00;;;;;;;7.10;2.20;;;5.40;97.80;;;;;;4918311;29;20048;-79
2021/12/09 17:16:29;;;;;;;8.43;2.50;;;5.40;97.80;;;;;;4935123;29;20051;-81
2021/12/09 17:18:57;;;;;;;7.85;2.45;;;5.50;97.80;;;;;;4931774;29;20075;-83
2021/12/09 17:21:24;;;;;;;10.25;2.88;;;5.40;97.70;;;;;;4946098;29;21086;-81
2021/12/09 17:23:51;;;;;;;9.68;2.72;;;5.40;97.70;;;;;;4953924;29;20083;-80
2021/12/09 17:26:18;;;;;;;10.00;4.43;;;5.40;97.80;;;;;;4952960;29;20082;-87
2021/12/09 17:28:47;;;;;;;11.57;3.75;;;5.40;97.80;;;;;;4947234;29;20048;-80
2021/12/09 17:31:17;;;;;;;8.00;2.88;;;5.40;97.70;;;;;;4924743;29;20456;-83
2021/12/09 17:33:45;;;;;;;7.82;2.35;;;5.40;97.60;;;;;;4923610;29;20489;-83
2021/12/09 17:36:12;;;;;;;8.73;2.42;;;5.40;97.50;;;;;;4924438;29;20126;-79
2021/12/09 17:38:40;;;;;;;10.93;2.50;;;5.40;97.50;;;;;;4921380;29;20080;-81
2021/12/09 17:41:07;;;;;;;15.50;5.07;;;5.40;97.50;;;;;;4923199;29;20084;-82
2021/12/09 17:43:37;;;;;;;18.23;7.72;;;5.40;97.40;;;;;;4922877;29;20086;-78
2021/12/09 17:46:04;;;;;;;18.45;7.50;;;5.40;97.50;;;;;;4923633;29;20421;-82
2021/12/09 17:48:32;;;;;;;12.65;3.30;;;5.30;97.40;;;;;;4925762;29;20071;-83
2021/12/09 17:51:03;;;;;;;7.75;2.85;;;5.40;97.40;;;;;;4925454;29;20051;-80
2021/12/09 17:53:31;;;;;;;10.32;2.75;;;5.40;97.40;;;;;;4928288;29;20070;-80
2021/12/09 17:55:58;;;;;;;9.65;2.63;;;5.40;97.30;;;;;;4924153;29;20111;-81
2021/12/09 17:58:27;;;;;;;7.57;2.10;;;5.40;97.30;;;;;;4928300;29;20151;-78
2021/12/09 18:00:55;;;;;;;8.70;2.10;;;5.30;97.40;;;;;;4926404;29;20115;-80
2021/12/09 18:03:23;;;;;;;11.35;2.55;;;5.30;97.30;;;;;;4925042;29;21121;-80
2021/12/09 18:05:50;;;;;;;9.93;2.55;;;5.30;97.20;;;;;;4925445;29;20405;-80
2021/12/09 18:08:19;;;;;;;7.93;2.58;;;5.30;97.30;;;;;;4921150;29;20143;-79
2021/12/09 18:10:49;;;;;;;15.38;2.72;;;5.30;97.30;;;;;;4923940;29;20083;-81
2021/12/09 18:13:19;;;;;;;7.88;2.20;;;5.30;97.30;;;;;;4931246;29;20075;-81
2021/12/09 18:15:48;;;;;;;8.10;1.98;;;5.30;97.30;;;;;;4922843;29;20056;-80
2021/12/09 18:18:16;;;;;;;7.43;2.13;;;5.30;97.40;;;;;;4928545;29;20536;-79
2021/12/09 18:20:44;;;;;;;6.65;2.03;;;5.30;97.20;;;;;;4925599;29;20055;-80
2021/12/09 18:23:11;;;;;;;7.55;2.25;;;5.30;97.10;;;;;;4924335;29;20467;-80
2021/12/09 18:25:40;;;;;;;5.93;1.85;;;5.30;97.10;;;;;;4931032;29;20834;-81
2021/12/09 18:28:08;;;;;;;9.10;2.03;;;5.30;97.00;;;;;;4929620;29;20060;-81
2021/12/09 18:30:36;;;;;;;7.80;1.80;;;5.20;97.00;;;;;;4922844;29;20176;-81
2021/12/09 18:33:05;;;;;;;8.85;2.00;;;5.30;97.20;;;;;;4920725;29;20084;-82
2021/12/09 18:35:34;;;;;;;8.85;1.70;;;5.30;97.10;;;;;;4927124;29;20451;-83
2021/12/09 18:38:05;;;;;;;7.70;1.70;;;5.30;97.10;;;;;;4920476;29;20059;-80
2021/12/09 18:40:36;;;;;;;11.00;2.13;;;5.30;97.00;;;;;;4925839;29;20052;-84
2021/12/09 18:43:06;;;;;;;9.30;2.75;;;5.30;96.90;;;;;;4928771;29;20466;-83
2021/12/09 18:45:34;;;;;;;8.52;2.30;;;5.30;96.80;;;;;;4934897;29;20055;-85
2021/12/09 18:48:05;;;;;;;10.40;2.90;;;5.30;96.90;;;;;;4927239;29;20083;-81
2021/12/09 18:50:36;;;;;;;6.38;2.03;;;5.30;97.00;;;;;;4921280;29;20048;-84
2021/12/09 18:53:06;;;;;;;6.38;1.70;;;5.30;96.90;;;;;;4930812;29;20051;-79
2021/12/09 18:55:34;;;;;;;5.15;2.03;;;5.30;97.00;;;;;;4927775;29;20043;-79
2021/12/09 18:58:06;;;;;;;7.05;2.10;;;5.40;97.10;;;;;;4924099;29;20500;-83
2021/12/09 19:00:35;;;;;;;26.50;9.55;;;5.40;97.10;;;;;;4919355;29;20150;-80
2021/12/09 19:03:02;;;;;;;21.42;7.80;;;5.40;97.10;;;;;;4922849;29;20154;-80
2021/12/09 19:05:31;;;;;;;10.80;2.92;;;5.40;97.10;;;;;;4928843;29;20062;-79
2021/12/09 19:07:59;;;;;;;7.25;2.25;;;5.40;97.00;;;;;;4925935;29;20052;-80
2021/12/09 19:10:29;;;;;;;6.15;1.88;;;5.40;97.00;;;;;;4920551;29;20489;-79
2021/12/09 19:12:56;;;;;;;6.07;1.75;;;5.40;96.90;;;;;;4921172;29;20083;-80
2021/12/09 19:15:27;;;;;;;6.50;2.00;;;5.50;96.90;;;;;;4922964;29;20056;-79
2021/12/09 19:18:01;;;;;;;12.38;2.70;;;5.50;97.00;;;;;;4925320;29;20044;-86
2021/12/09 19:20:33;;;;;;;7.28;1.80;;;5.40;97.10;;;;;;4920574;29;20127;-82
2021/12/09 19:23:01;;;;;;;6.47;1.83;;;5.40;96.90;;;;;;4924383;29;20059;-83
2021/12/09 19:25:28;;;;;;;8.15;1.85;;;5.40;96.70;;;;;;4921365;29;20079;-79
2021/12/09 19:28:00;;;;;;;7.45;1.83;;;5.40;96.60;;;;;;4928040;29;20062;-80
2021/12/09 19:30:33;;;;;;;8.48;2.00;;;5.40;96.60;;;;;;4918304;29;20156;-84
2021/12/09 19:33:01;;;;;;;12.18;2.55;;;5.40;96.70;;;;;;4914675;29;20056;-82
2021/12/09 19:35:32;;;;;;;6.50;1.83;;;5.30;96.70;;;;;;4921513;29;20162;-80
2021/12/09 19:38:00;;;;;;;8.35;2.33;;;5.30;96.80;;;;;;4928360;29;20047;-83
2021/12/09 19:40:31;;;;;;;7.97;2.08;;;5.30;96.60;;;;;;4927676;29;20055;-80
2021/12/09 19:42:58;;;;;;;8.02;1.90;;;5.30;96.60;;;;;;4928645;29;20134;-81
2021/12/09 19:45:26;;;;;;;6.53;1.90;;;5.30;96.60;;;;;;4925146;29;20084;-80
2021/12/09 19:47:55;;;;;;;9.88;2.22;;;5.30;96.80;;;;;;4924315;29;20128;-82
2021/12/09 19:50:22;;;;;;;7.25;1.60;;;5.30;96.70;;;;;;4919535;29;20135;-85
2021/12/09 19:52:52;;;;;;;6.75;1.75;;;5.30;96.80;;;;;;4916367;29;20052;-83
2021/12/09 19:55:23;;;;;;;6.25;1.80;;;5.30;96.90;;;;;;4926099;29;20142;-81
2021/12/09 19:57:53;;;;;;;6.50;2.15;;;5.30;97.00;;;;;;4920791;29;20112;-81
2021/12/09 20:00:26;;;;;;;8.48;2.17;;;5.30;96.90;;;;;;4920839;29;20051;-75